Time;durP1;ratioP1;P1;durP2;ratioP2;P2;SDS_P1;SDS_P2;PMS_P1;PMS_P2;Temp;Humidity;BMP_temperature;BMP_pressure;BME280_temperature;BME280_humidity;BME280_pressure;Samples;Min_cycle;Max_cycle;Signal;HPM_P1;HPM_P2
2022/01/05 00:00:40;;;;;;;10.30;1.97;;;;;;;3.97;100.00;99697.53;4967792;28;20208;-75
2022/01/05 00:03:05;;;;;;;10.77;1.60;;;;;;;3.45;100.00;99626.84;4969014;28;25132;-74
2022/01/05 00:05:31;;;;;;;6.33;1.53;;;;;;;3.07;100.00;99552.72;4967227;28;25142;-74
2022/01/05 00:07:57;;;;;;;5.87;2.30;;;;;;;3.43;100.00;99642.91;4964417;28;25139;-74
2022/01/05 00:10:22;;;;;;;10.93;2.50;;;;;;;2.94;100.00;99559.44;4972714;28;25164;-74
2022/01/05 00:12:48;;;;;;;6.17;1.80;;;;;;;2.99;100.00;99571.31;4955301;28;25069;-74
2022/01/05 00:15:14;;;;;;;4.00;1.20;;;;;;;3.52;100.00;99664.84;4967330;28;20299;-74
2022/01/05 00:17:39;;;;;;;7.90;1.60;;;;;;;3.56;100.00;99656.38;4951836;28;20444;-75
2022/01/05 00:20:06;;;;;;;5.40;1.93;;;;;;;3.70;100.00;99659.19;4969823;28;25138;-73
2022/01/05 00:22:31;;;;;;;8.50;2.07;;;;;;;3.66;100.00;99672.00;4965872;28;25121;-73
2022/01/05 00:24:57;;;;;;;10.90;3.00;;;;;;;2.94;100.00;99550.66;4969087;28;25154;-74
2022/01/05 00:27:22;;;;;;;10.20;1.80;;;;;;;3.66;100.00;99636.72;4966878;28;25110;-74
2022/01/05 00:29:48;;;;;;;13.57;1.90;;;;;;;2.13;100.00;99406.69;4964513;28;25081;-76
2022/01/05 00:32:14;;;;;;;9.63;1.97;;;;;;;1.61;100.00;99351.91;4964966;28;20208;-75
2022/01/05 00:34:39;;;;;;;6.97;2.13;;;;;;;3.30;100.00;99635.59;4953977;28;25143;-74
2022/01/05 00:37:04;;;;;;;7.47;1.90;;;;;;;1.91;100.00;99417.13;4967157;28;20200;-75
2022/01/05 00:39:30;;;;;;;8.40;1.90;;;;;;;2.71;100.00;99551.53;4968981;28;20192;-75
2022/01/05 00:41:55;;;;;;;8.90;1.97;;;;;;;3.13;100.00;99621.69;4950750;28;25074;-73
2022/01/05 00:44:21;;;;;;;10.13;2.00;;;;;;;3.17;100.00;99614.19;4968031;28;25059;-75
2022/01/05 00:46:46;;;;;;;6.70;2.10;;;;;;;3.27;100.00;99645.72;4967306;28;24671;-73
2022/01/05 00:49:13;;;;;;;5.30;2.07;;;;;;;3.22;100.00;99633.03;4970905;28;20287;-73
2022/01/05 00:51:39;;;;;;;11.37;2.57;;;;;;;3.23;100.00;99633.84;4967939;28;20279;-74
2022/01/05 00:54:05;;;;;;;5.57;1.60;;;;;;;3.22;100.00;99587.97;4965655;28;20470;-73
2022/01/05 00:56:31;;;;;;;7.30;2.13;;;;;;;3.32;100.00;99640.69;4959913;28;21002;-75
2022/01/05 00:58:57;;;;;;;14.87;2.50;;;;;;;2.57;100.00;99512.59;4965007;28;20557;-74
2022/01/05 01:01:22;;;;;;;13.63;3.10;;;;;;;3.29;100.00;99630.47;4968054;28;20211;-74
2022/01/05 01:03:48;;;;;;;9.03;2.03;;;;;;;2.50;100.00;99535.50;4971229;28;20208;-74
2022/01/05 01:06:13;;;;;;;9.00;2.40;;;;;;;3.29;100.00;99625.97;4965915;28;25089;-76
2022/01/05 01:08:39;;;;;;;7.83;2.27;;;;;;;1.45;100.00;99353.69;4957940;28;25150;-74
2022/01/05 01:11:04;;;;;;;6.50;1.80;;;;;;;3.22;100.00;99619.78;4963186;28;20744;-73
2022/01/05 01:13:33;;;;;;;7.43;1.77;;;;;;;3.15;100.00;99645.34;4968084;28;20227;-73
2022/01/05 01:15:59;;;;;;;6.33;1.73;;;;;;;2.01;100.00;99494.38;4958504;28;20233;-74
2022/01/05 01:18:25;;;;;;;7.93;2.03;;;;;;;3.14;100.00;99635.75;4971352;28;25072;-74
2022/01/05 01:20:50;;;;;;;9.43;2.33;;;;;;;2.30;100.00;99547.59;4971527;28;25059;-74
2022/01/05 01:23:22;;;;;;;11.90;2.00;;;;;;;2.90;100.00;99619.06;4967424;28;25071;-73
2022/01/05 01:25:51;;;;;;;6.67;1.73;;;;;;;2.03;100.00;99491.56;4963521;28;25052;-73
2022/01/05 01:28:17;;;;;;;8.10;2.03;;;;;;;2.10;100.00;99466.03;4968983;28;20655;-73
2022/01/05 01:30:43;;;;;;;7.30;2.13;;;;;;;2.19;100.00;99472.91;4953332;28;20446;-74
2022/01/05 01:33:08;;;;;;;4.47;1.60;;;;;;;2.84;100.00;99560.72;4959805;28;25098;-74
2022/01/05 01:35:34;;;;;;;6.77;2.33;;;;;;;2.86;100.00;99631.00;4975221;28;25103;-73
2022/01/05 01:38:00;;;;;;;8.60;2.30;;;;;;;3.19;100.00;99617.50;4970874;28;20257;-74
2022/01/05 01:40:29;;;;;;;13.87;2.53;;;;;;;2.30;100.00;99473.50;4969169;28;25058;-74
2022/01/05 01:42:54;;;;;;;5.83;2.00;;;;;;;2.27;100.00;99448.22;4972082;28;20240;-75
2022/01/05 01:45:20;;;;;;;13.30;2.37;;;;;;;2.44;100.00;99493.88;4968587;28;25099;-75
2022/01/05 01:47:46;;;;;;;7.97;1.63;;;;;;;3.07;100.00;99603.88;4972095;28;20307;-75
2022/01/05 01:50:12;;;;;;;8.43;2.17;;;;;;;2.31;100.00;99496.31;4971402;28;20689;-75
2022/01/05 01:52:38;;;;;;;11.50;2.00;;;;;;;2.68;100.00;99551.88;4961745;28;25229;-73
2022/01/05 01:55:06;;;;;;;13.37;2.70;;;;;;;1.34;100.00;99319.75;4951165;28;20506;-73
2022/01/05 01:57:38;;;;;;;11.93;2.60;;;;;;;1.85;100.00;99428.38;4967242;28;25134;-74
2022/01/05 02:00:05;;;;;;;9.73;2.10;;;;;;;2.03;100.00;99420.97;4970736;28;25117;-75
2022/01/05 02:02:31;;;;;;;9.97;2.77;;;;;;;2.02;100.00;99426.44;4972221;28;20897;-74
2022/01/05 02:04:56;;;;;;;11.70;2.93;;;;;;;2.21;100.00;99436.53;4969507;28;25181;-74
2022/01/05 02:07:22;;;;;;;8.97;2.83;;;;;;;3.38;100.00;99616.97;4972122;28;25129;-75
2022/01/05 02:09:47;;;;;;;15.43;2.90;;;;;;;3.46;100.00;99626.63;4966381;28;25074;-75
2022/01/05 02:12:13;;;;;;;13.10;3.40;;;;;;;2.91;100.00;99546.56;4968004;28;25067;-75
2022/01/05 02:14:38;;;;;;;12.43;3.33;;;;;;;3.09;100.00;99566.56;4966779;28;25109;-74
2022/01/05 02:17:10;;;;;;;20.30;4.00;;;;;;;2.33;100.00;99444.84;4971739;28;20200;-74
2022/01/05 02:19:35;;;;;;;11.10;3.10;;;;;;;2.09;100.00;99400.13;4958877;28;20203;-75
2022/01/05 02:22:09;;;;;;;12.27;3.07;;;;;;;3.38;100.00;99614.31;4967662;28;20691;-74
2022/01/05 02:24:35;;;;;;;19.13;4.27;;;;;;;2.25;100.00;99466.09;4970610;28;25145;-73
2022/01/05 02:27:01;;;;;;;9.20;3.00;;;;;;;2.52;100.00;99447.97;4967750;28;25120;-76
2022/01/05 02:29:26;;;;;;;12.40;2.83;;;;;;;1.18;100.00;99241.44;4970696;28;21291;-75
2022/01/05 02:31:52;;;;;;;11.20;3.03;;;;;;;1.97;100.00;99371.44;4969713;28;25084;-73
2022/01/05 02:34:18;;;;;;;12.27;3.23;;;;;;;2.94;100.00;99492.41;4959328;28;25144;-74
2022/01/05 02:36:43;;;;;;;14.03;3.60;;;;;;;2.54;100.00;99432.75;4969672;28;20252;-73
2022/01/05 02:39:09;;;;;;;12.10;4.40;;;;;;;3.75;100.00;99623.16;4949669;28;25160;-72
2022/01/05 02:41:34;;;;;;;14.13;2.83;;;;;;;3.27;100.00;99539.72;4968490;28;25065;-74
2022/01/05 02:44:00;;;;;;;10.40;2.77;;;;;;;2.11;100.00;99340.75;4968394;28;25071;-73
2022/01/05 02:46:25;;;;;;;13.40;3.13;;;;;;;3.60;100.00;99562.19;4969055;28;20743;-73
2022/01/05 02:48:53;;;;;;;13.40;3.43;;;;;;;1.47;100.00;99251.25;4969649;28;25117;-75
2022/01/05 02:51:19;;;;;;;9.60;2.77;;;;;;;3.95;100.00;99617.28;4969052;28;20200;-73
2022/01/05 02:53:51;;;;;;;10.07;2.70;;;;;;;1.73;100.00;99248.22;4971383;28;20255;-75
2022/01/05 02:56:18;;;;;;;17.53;3.87;;;;;;;3.89;100.00;99594.16;4968893;28;25115;-74
2022/01/05 02:58:46;;;;;;;14.50;2.97;;;;;;;3.34;100.00;99493.75;4965606;28;20566;-74
2022/01/05 03:01:12;;;;;;;17.00;3.83;;;;;;;3.95;100.00;99598.72;4969720;28;25145;-74
2022/01/05 03:03:37;;;;;;;25.70;3.67;;;;;;;3.95;100.00;99606.69;4967185;28;25150;-73
2022/01/05 03:06:03;;;;;;;13.40;3.30;;;;;;;4.00;100.00;99575.13;4953489;28;25125;-75
2022/01/05 03:08:30;;;;;;;13.50;2.90;;;;;;;2.84;100.00;99405.28;4970638;28;25080;-73
2022/01/05 03:10:55;;;;;;;9.63;2.13;;;;;;;2.56;100.00;99377.81;4954748;28;20621;-75
2022/01/05 03:13:23;;;;;;;8.50;2.30;;;;;;;4.00;100.00;99604.28;4966759;28;25173;-74
2022/01/05 03:15:49;;;;;;;9.60;2.57;;;;;;;1.85;100.00;99296.19;4966152;28;25131;-78
2022/01/05 03:18:14;;;;;;;13.87;2.80;;;;;;;2.84;100.00;99429.13;4974572;28;25096;-74
2022/01/05 03:20:48;;;;;;;9.30;2.17;;;;;;;3.44;100.00;99513.84;4975620;28;20469;-73
2022/01/05 03:23:14;;;;;;;10.37;2.90;;;;;;;3.99;100.00;99594.69;4972220;28;25060;-74
2022/01/05 03:25:40;;;;;;;10.93;3.83;;;;;;;4.02;100.00;99607.56;4964079;28;20988;-73
2022/01/05 03:28:05;;;;;;;12.07;3.00;;;;;;;3.22;100.00;99487.28;4970277;28;25074;-75
2022/01/05 03:30:33;;;;;;;15.53;3.03;;;;;;;3.97;100.00;99608.16;4968173;28;20641;-73
2022/01/05 03:35:29;;;;;;;11.20;2.80;;;;;;;4.05;100.00;99607.19;4969966;28;20471;-73
2022/01/05 03:38:07;;;;;;;18.50;3.23;;;;;;;3.20;100.00;99483.16;4967663;28;25111;-73
2022/01/05 03:40:36;;;;;;;15.73;3.80;;;;;;;3.69;100.00;99539.03;4968991;28;25122;-76
2022/01/05 03:43:13;;;;;;;13.40;2.67;;;;;;;3.85;100.00;99586.56;4969914;28;20526;-74
2022/01/05 03:45:40;;;;;;;14.43;2.60;;;;;;;3.47;100.00;99513.47;4970503;28;20482;-74
2022/01/05 03:48:12;;;;;;;14.97;3.10;;;;;;;3.94;100.00;99581.16;4969510;28;25120;-74
2022/01/05 03:50:38;;;;;;;15.07;2.73;;;;;;;3.85;100.00;99572.50;4969105;28;25106;-73
2022/01/05 03:53:04;;;;;;;14.57;2.70;;;;;;;3.46;100.00;99503.88;4952171;28;25105;-74
2022/01/05 03:55:31;;;;;;;11.57;2.60;;;;;;;3.85;100.00;99575.97;4968227;28;20287;-74
2022/01/05 03:57:57;;;;;;;8.57;2.37;;;;;;;3.53;100.00;99533.94;4965613;28;25090;-73
2022/01/05 04:00:24;;;;;;;15.13;3.33;;;;;;;3.53;100.00;99537.44;4967576;28;20959;-73
2022/01/05 04:02:50;;;;;;;10.53;3.27;;;;;;;2.56;100.00;99393.69;4966627;28;25118;-74
2022/01/05 04:05:15;;;;;;;11.87;3.80;;;;;;;3.72;100.00;99577.63;4965486;28;25193;-73
2022/01/05 04:07:41;;;;;;;13.33;2.40;;;;;;;2.89;100.00;99466.47;4968649;28;20201;-73
2022/01/05 04:10:06;;;;;;;9.40;2.13;;;;;;;3.75;100.00;99601.94;4968850;28;25088;-74
2022/01/05 04:12:32;;;;;;;5.93;1.97;;;;;;;2.24;100.00;99342.75;4967517;28;20217;-73
2022/01/05 04:14:58;;;;;;;9.40;2.37;;;;;;;2.75;100.00;99454.06;4966451;28;20244;-72
2022/01/05 04:17:33;;;;;;;7.23;2.20;;;;;;;3.71;100.00;99576.00;4967084;28;25138;-73
2022/01/05 04:19:58;;;;;;;14.70;3.00;;;;;;;2.22;100.00;99348.22;4968201;28;25076;-72
2022/01/05 04:22:23;;;;;;;8.77;1.90;;;;;;;3.78;100.00;99583.00;4969772;28;25184;-73
2022/01/05 04:24:49;;;;;;;15.40;2.50;;;;;;;2.84;100.00;99450.31;4967830;28;20224;-73
2022/01/05 04:27:15;;;;;;;11.20;2.60;;;;;;;3.63;100.00;99583.03;4971216;28;25061;-74
2022/01/05 04:29:41;;;;;;;10.60;2.90;;;;;;;3.28;100.00;99520.19;4953474;28;25143;-73
2022/01/05 04:32:07;;;;;;;9.87;2.13;;;;;;;3.00;100.00;99445.81;4965100;28;25152;-74
2022/01/05 04:34:32;;;;;;;12.70;2.73;;;;;;;3.50;100.00;99521.06;4968409;28;20485;-73
2022/01/05 04:36:58;;;;;;;8.40;2.57;;;;;;;2.91;100.00;99439.78;4966703;28;20543;-74
2022/01/05 04:39:23;;;;;;;9.07;1.97;;;;;;;3.56;100.00;99554.81;4963522;28;20324;-73
2022/01/05 04:41:49;;;;;;;13.03;3.03;;;;;;;3.27;100.00;99519.34;4963375;28;25089;-73
2022/01/05 04:44:14;;;;;;;7.67;1.90;;;;;;;2.84;100.00;99439.72;4964849;28;20204;-73
2022/01/05 04:46:39;;;;;;;6.33;2.00;;;;;;;2.19;100.00;99342.47;4965981;28;20220;-74
2022/01/05 04:49:05;;;;;;;8.57;2.47;;;;;;;3.46;100.00;99523.25;4966210;28;25076;-73
2022/01/05 04:51:30;;;;;;;10.47;2.60;;;;;;;3.76;100.00;99598.31;4967927;28;20207;-73
2022/01/05 04:53:56;;;;;;;10.97;2.00;;;;;;;2.68;100.00;99402.81;4968155;28;25082;-74
2022/01/05 04:56:21;;;;;;;11.47;2.00;;;;;;;3.86;100.00;99582.09;4952260;28;20219;-75
2022/01/05 04:58:47;;;;;;;12.97;2.60;;;;;;;3.43;100.00;99483.03;4967575;28;25098;-74
2022/01/05 05:01:15;;;;;;;10.17;3.17;;;;;;;2.20;100.00;99342.28;4964960;28;25078;-74
2022/01/05 05:03:40;;;;;;;13.03;2.57;;;;;;;3.70;100.00;99539.84;4966804;28;25059;-74
2022/01/05 05:06:06;;;;;;;10.50;2.00;;;;;;;3.85;100.00;99564.53;4966000;28;20586;-74
2022/01/05 05:08:32;;;;;;;10.13;2.97;;;;;;;3.28;100.00;99472.47;4964364;28;20208;-75
2022/01/05 05:10:57;;;;;;;9.87;2.40;;;;;;;3.28;100.00;99483.06;4965618;28;21358;-73
2022/01/05 05:13:22;;;;;;;10.63;2.43;;;;;;;3.65;100.00;99516.56;4964524;28;25079;-74
2022/01/05 05:15:48;;;;;;;9.33;2.60;;;;;;;3.88;100.00;99558.00;4966718;28;28175;-74
2022/01/05 05:18:13;;;;;;;9.00;1.90;;;;;;;2.96;100.00;99391.56;4954721;28;20217;-73
2022/01/05 05:20:40;;;;;;;8.87;2.10;;;;;;;3.72;100.00;99562.53;4967595;28;25062;-73
2022/01/05 05:23:06;;;;;;;10.00;2.20;;;;;;;2.99;100.00;99388.56;4969882;28;25081;-73
2022/01/05 05:25:31;;;;;;;14.80;2.57;;;;;;;3.52;100.00;99485.41;4968589;28;25108;-73
2022/01/05 05:27:57;;;;;;;7.57;1.63;;;;;;;4.05;100.00;99546.16;4971858;28;20207;-73
2022/01/05 05:30:23;;;;;;;13.40;2.77;;;;;;;4.05;100.00;99559.44;4965519;28;20205;-72
2022/01/05 05:32:55;;;;;;;15.57;3.67;;;;;;;3.69;100.00;99486.00;4966631;28;25089;-73
2022/01/05 05:35:21;;;;;;;10.93;2.80;;;;;;;3.56;100.00;99465.47;4959219;28;25105;-74
2022/01/05 05:37:49;;;;;;;15.07;4.13;;;;;;;3.96;100.00;99555.25;4967278;28;20459;-73
2022/01/05 05:40:18;;;;;;;15.90;3.80;;;;;;;3.60;100.00;99503.84;4966360;28;25110;-73
2022/01/05 05:42:43;;;;;;;11.27;3.47;;;;;;;2.24;100.00;99284.56;4961794;28;20426;-73
2022/01/05 05:45:09;;;;;;;7.40;2.23;;;;;;;4.01;100.00;99550.22;4961262;28;20494;-74
2022/01/05 05:47:35;;;;;;;11.30;2.50;;;;;;;3.70;100.00;99500.88;4966585;28;25124;-74
2022/01/05 05:50:03;;;;;;;8.50;2.70;;;;;;;3.86;100.00;99544.94;4964064;28;20451;-73
2022/01/05 05:52:29;;;;;;;10.13;2.90;;;;;;;3.96;100.00;99512.81;4963042;28;25072;-73
2022/01/05 05:54:56;;;;;;;11.07;3.23;;;;;;;3.77;100.00;99472.63;4958909;28;20502;-76
2022/01/05 05:57:22;;;;;;;14.97;3.60;;;;;;;3.12;100.00;99402.75;4962696;28;25154;-73
2022/01/05 05:59:47;;;;;;;11.73;3.30;;;;;;;2.51;100.00;99321.94;4961715;28;25103;-72
2022/01/05 06:02:13;;;;;;;10.03;2.33;;;;;;;2.82;100.00;99372.03;4961675;28;25114;-72
2022/01/05 06:04:38;;;;;;;16.33;3.43;;;;;;;2.56;100.00;99346.03;4960471;28;20197;-77
2022/01/05 06:07:03;;;;;;;14.80;2.87;;;;;;;3.94;100.00;99546.69;4970659;28;25059;-73
2022/01/05 06:09:29;;;;;;;16.47;3.10;;;;;;;3.73;100.00;99497.91;4973059;28;25078;-77
2022/01/05 06:11:54;;;;;;;9.43;2.43;;;;;;;2.39;100.00;99311.00;4970299;28;25709;-75
2022/01/05 06:14:20;;;;;;;11.30;3.27;;;;;;;3.83;100.00;99532.88;4964631;28;25061;-75
2022/01/05 06:16:45;;;;;;;8.73;3.00;;;;;;;2.82;100.00;99391.41;4965271;28;20212;-75
2022/01/05 06:19:11;;;;;;;8.87;2.70;;;;;;;2.47;100.00;99285.25;4971481;28;20268;-73
2022/01/05 06:21:37;;;;;;;7.33;2.97;;;;;;;3.29;100.00;99421.91;4968808;28;25077;-75
2022/01/05 06:24:02;;;;;;;10.73;2.80;;;;;;;2.84;100.00;99383.28;4969027;28;20192;-73
2022/01/05 06:26:28;;;;;;;15.90;2.60;;;;;;;2.22;100.00;99305.88;4973886;28;25125;-74
2022/01/05 06:28:53;;;;;;;8.60;2.67;;;;;;;2.45;100.00;99320.84;4974643;28;25055;-73
2022/01/05 06:31:19;;;;;;;7.10;2.83;;;;;;;3.37;100.00;99468.72;4972680;28;25072;-74
2022/01/05 06:33:44;;;;;;;8.13;2.63;;;;;;;3.50;100.00;99515.75;4971468;28;20244;-74
2022/01/05 06:36:09;;;;;;;5.90;1.97;;;;;;;1.93;100.00;99255.63;4969122;28;20267;-74
2022/01/05 06:38:35;;;;;;;5.90;2.20;;;;;;;1.81;100.00;99247.31;4965385;28;20345;-75
2022/01/05 06:41:01;;;;;;;10.43;2.43;;;;;;;2.97;100.00;99440.88;4972641;28;25066;-74
2022/01/05 06:43:26;;;;;;;3.93;1.60;;;;;;;2.39;100.00;99303.88;4974818;28;20205;-73
2022/01/05 06:45:52;;;;;;;9.63;1.90;;;;;;;3.47;100.00;99502.88;4973097;28;20609;-77
2022/01/05 06:48:17;;;;;;;10.20;2.60;;;;;;;1.62;100.00;99208.19;4972680;28;20291;-74
2022/01/05 06:50:43;;;;;;;9.07;1.90;;;;;;;2.64;100.00;99356.53;4971599;28;25063;-75
2022/01/05 06:53:09;;;;;;;5.10;1.87;;;;;;;1.98;100.00;99274.41;4973360;28;20648;-76
2022/01/05 06:55:37;;;;;;;10.37;2.20;;;;;;;3.70;100.00;99553.13;4971599;28;20270;-74
2022/01/05 06:58:05;;;;;;;6.40;1.70;;;;;;;3.82;100.00;99549.00;4974470;28;20339;-74
2022/01/05 07:00:31;;;;;;;6.43;2.00;;;;;;;3.17;100.00;99445.44;4971396;28;20968;-73
2022/01/05 07:02:57;;;;;;;8.00;2.10;;;;;;;3.33;100.00;99499.25;4973262;28;20443;-73
2022/01/05 07:05:23;;;;;;;9.67;2.00;;;;;;;3.61;100.00;99517.94;4966711;28;25090;-73
2022/01/05 07:07:49;;;;;;;5.87;1.60;;;;;;;3.05;100.00;99422.25;4970515;28;25103;-74
2022/01/05 07:10:14;;;;;;;9.37;1.73;;;;;;;3.77;100.00;99503.63;4956160;28;20243;-73
2022/01/05 07:12:40;;;;;;;8.73;2.00;;;;;;;4.10;100.00;99551.72;4972762;28;25159;-74
2022/01/05 07:15:06;;;;;;;10.60;2.47;;;;;;;4.12;100.00;99538.28;4971626;28;25085;-73
2022/01/05 07:17:32;;;;;;;14.40;2.23;;;;;;;3.79;100.00;99506.91;4959329;28;20252;-74
2022/01/05 07:19:58;;;;;;;10.27;1.83;;;;;;;4.13;100.00;99551.34;4970203;28;20658;-74
2022/01/05 07:22:23;;;;;;;7.00;2.20;;;;;;;3.24;100.00;99442.03;4972271;28;20471;-73
2022/01/05 07:24:49;;;;;;;9.37;2.20;;;;;;;4.08;100.00;99553.78;4972130;28;20701;-73
2022/01/05 07:27:14;;;;;;;10.13;3.17;;;;;;;4.08;100.00;99559.09;4971847;28;20239;-73
2022/01/05 07:29:40;;;;;;;7.10;2.13;;;;;;;3.70;100.00;99484.16;4974900;28;25064;-74
2022/01/05 07:32:06;;;;;;;9.27;2.27;;;;;;;3.00;100.00;99395.47;4974185;28;20275;-73
2022/01/05 07:34:31;;;;;;;7.63;2.87;;;;;;;2.71;100.00;99346.84;4972546;28;25181;-75
2022/01/05 07:36:57;;;;;;;8.13;2.33;;;;;;;4.18;100.00;99538.34;4973891;28;20446;-74
2022/01/05 07:39:23;;;;;;;7.63;2.60;;;;;;;2.59;100.00;99303.31;4973741;28;20204;-72
2022/01/05 07:41:48;;;;;;;7.03;2.60;;;;;;;4.01;100.00;99513.88;4974474;28;25155;-72
2022/01/05 07:44:14;;;;;;;9.60;3.77;;;;;;;2.23;100.00;99249.34;4957662;28;20283;-72
2022/01/05 07:46:42;;;;;;;7.23;2.50;;;;;;;4.20;100.00;99564.72;4956128;28;26185;-73
2022/01/05 07:49:08;;;;;;;11.40;2.53;;;;;;;4.15;100.00;99544.03;4972626;28;20250;-74
2022/01/05 07:51:34;;;;;;;8.40;2.43;;;;;;;4.08;100.00;99536.03;4969048;28;25124;-73
2022/01/05 07:54:00;;;;;;;8.37;2.43;;;;;;;3.95;100.00;99503.22;4971303;28;20977;-74
2022/01/05 07:56:26;;;;;;;6.67;2.00;;;;;;;4.38;100.00;99565.09;4969190;28;20224;-73
2022/01/05 07:58:52;;;;;;;9.10;2.40;;;;;;;3.27;100.00;99388.66;4971165;28;25063;-72
2022/01/05 08:01:18;;;;;;;20.93;2.90;;;;;;;3.14;100.00;99347.75;4969337;28;20453;-73
2022/01/05 08:03:51;;;;;;;16.23;2.93;;;;;;;4.38;100.00;99551.81;4971879;28;25079;-73
2022/01/05 08:06:17;;;;;;;12.60;2.23;;;;;;;4.36;100.00;99534.44;4961441;28;25182;-73
2022/01/05 08:08:44;;;;;;;9.77;2.50;;;;;;;3.88;100.00;99457.22;4969361;28;25121;-73
2022/01/05 08:11:10;;;;;;;6.10;2.90;;;;;;;4.19;100.00;99539.16;4969983;28;25115;-73
2022/01/05 08:13:36;;;;;;;10.07;2.47;;;;;;;3.70;100.00;99431.94;4966422;28;26189;-73
2022/01/05 08:16:01;;;;;;;7.07;2.60;;;;;;;3.11;100.00;99348.13;4970276;28;25138;-73
2022/01/05 08:18:26;;;;;;;10.30;2.87;;;;;;;3.79;100.00;99437.94;4969282;28;25174;-74
2022/01/05 08:20:52;;;;;;;7.30;2.00;;;;;;;3.82;100.00;99433.09;4955373;28;25102;-74
2022/01/05 08:23:22;;;;;;;10.57;2.97;;;;;;;2.90;100.00;99290.66;4963436;28;20187;-75
2022/01/05 08:25:50;;;;;;;7.50;2.20;;;;;;;3.32;100.00;99342.03;4948301;28;20213;-73
2022/01/05 08:28:17;;;;;;;9.63;2.87;;;;;;;4.11;100.00;99504.78;4969052;28;25099;-71
2022/01/05 08:30:45;;;;;;;14.87;2.40;;;;;;;4.60;100.00;99551.78;4966115;28;20444;-73
2022/01/05 08:33:12;;;;;;;9.80;2.60;;;;;;;4.56;100.00;99553.19;4958382;28;25223;-73
2022/01/05 08:35:38;;;;;;;5.73;2.60;;;;;;;4.68;100.00;99554.31;4969372;28;25100;-72
2022/01/05 08:38:04;;;;;;;10.33;2.17;;;;;;;4.55;100.00;99501.13;4968082;28;25115;-73
2022/01/05 08:40:31;;;;;;;9.50;2.20;;;;;;;4.72;100.00;99542.31;4967596;28;25168;-73
2022/01/05 08:42:57;;;;;;;10.20;2.50;;;;;;;4.79;100.00;99559.13;4958340;28;20420;-73
2022/01/05 08:45:23;;;;;;;8.80;2.47;;;;;;;4.41;100.00;99500.19;4970960;28;25118;-73
2022/01/05 08:47:51;;;;;;;9.37;2.50;;;;;;;3.75;100.00;99431.38;4970359;28;20458;-73
2022/01/05 08:50:20;;;;;;;13.93;3.60;;;;;;;4.19;100.00;99500.16;4964246;28;20463;-74
2022/01/05 08:52:46;;;;;;;9.57;2.23;;;;;;;4.75;100.00;99595.06;4971464;28;25110;-74
2022/01/05 08:55:12;;;;;;;7.53;2.47;;;;;;;4.51;100.00;99551.94;4969006;28;25154;-74
2022/01/05 08:57:40;;;;;;;9.40;1.97;;;;;;;3.99;100.00;99469.97;4969662;28;25190;-74
2022/01/05 09:00:06;;;;;;;8.73;2.80;;;;;;;3.53;100.00;99431.38;4965489;28;25097;-74
2022/01/05 09:02:31;;;;;;;5.47;1.50;;;;;;;3.37;100.00;99383.88;4971846;28;25099;-74
2022/01/05 09:04:57;;;;;;;9.53;2.60;;;;;;;3.47;100.00;99394.19;4973079;28;25150;-74
2022/01/05 09:07:22;;;;;;;7.50;2.00;;;;;;;3.27;100.00;99338.31;4973997;28;25047;-73
2022/01/05 09:09:48;;;;;;;11.13;2.23;;;;;;;3.30;100.00;99367.13;4951573;28;20196;-74
2022/01/05 09:12:14;;;;;;;8.70;2.10;;;;;;;3.46;100.00;99363.38;4969915;28;20278;-75
2022/01/05 09:14:40;;;;;;;7.43;2.07;;;;;;;4.84;100.00;99595.75;4970396;28;25100;-73
2022/01/05 09:17:06;;;;;;;8.43;1.70;;;;;;;5.16;100.00;99626.25;4971853;28;25103;-75
2022/01/05 09:19:33;;;;;;;5.17;1.60;;;;;;;5.04;100.00;99598.56;4955833;28;25120;-74
2022/01/05 09:21:58;;;;;;;12.30;1.70;;;;;;;4.96;100.00;99592.34;4962224;28;25128;-74
2022/01/05 09:24:25;;;;;;;7.97;1.60;;;;;;;4.73;100.00;99541.28;4953518;28;25189;-75
2022/01/05 09:26:51;;;;;;;6.40;1.87;;;;;;;5.13;100.00;99630.09;4972231;28;24877;-74
2022/01/05 09:29:18;;;;;;;8.20;2.00;;;;;;;5.03;100.00;99616.31;4969090;28;25130;-74
2022/01/05 09:31:43;;;;;;;11.50;1.27;;;;;;;4.57;100.00;99568.09;4952903;28;20428;-74
2022/01/05 09:34:09;;;;;;;4.60;1.50;;;;;;;4.28;100.00;99528.25;4972443;28;25110;-73
2022/01/05 09:36:40;;;;;;;9.30;1.73;;;;;;;5.19;100.00;99645.28;4960185;28;25112;-73
2022/01/05 09:42:00;;;;;;;13.07;2.40;;;;;;;4.92;100.00;99574.34;4973914;28;25151;-76
2022/01/05 09:44:32;;;;;;;12.73;2.07;;;;;;;5.41;100.00;99639.94;4975469;28;25091;-75
2022/01/05 09:47:35;;;;;;;15.93;3.50;;;;;;;5.54;100.00;99655.97;4974614;28;25113;-74
2022/01/05 09:50:10;;;;;;;13.60;2.57;;;;;;;5.68;100.00;99654.22;4975683;28;25067;-72
2022/01/05 09:52:37;;;;;;;9.17;1.90;;;;;;;5.68;100.00;99646.22;4972704;28;25094;-74
2022/01/05 09:55:04;;;;;;;12.53;2.30;;;;;;;5.92;100.00;99660.06;4954056;28;25120;-74
2022/01/05 09:57:30;;;;;;;13.90;2.53;;;;;;;5.99;100.00;99643.16;4930695;28;25160;-73
2022/01/05 09:59:56;;;;;;;10.70;2.70;;;;;;;5.78;100.00;99605.94;4965083;28;25115;-74
2022/01/05 10:02:23;;;;;;;8.73;2.07;;;;;;;6.05;100.00;99650.34;4975034;28;25106;-75
2022/01/05 10:04:49;;;;;;;19.43;2.73;;;;;;;5.73;100.00;99598.56;4974619;28;25130;-73
2022/01/05 10:07:15;;;;;;;8.43;1.87;;;;;;;5.96;100.00;99622.25;4938398;28;20731;-74
2022/01/05 10:09:42;;;;;;;14.90;2.43;;;;;;;5.57;100.00;99605.03;4974868;28;25182;-75
2022/01/05 10:12:08;;;;;;;13.17;2.10;;;;;;;5.46;100.00;99719.94;4976897;28;25100;-73
2022/01/05 10:14:34;;;;;;;9.67;1.77;;;;;;;5.04;100.00;99721.63;4975896;28;25090;-74
2022/01/05 10:17:03;;;;;;;6.90;1.73;;;;;;;4.28;100.00;99597.28;4962299;28;25164;-72
2022/01/05 10:19:28;;;;;;;7.10;1.70;;;;;;;5.39;100.00;99727.06;4974136;28;25095;-75
2022/01/05 10:21:56;;;;;;;6.60;1.53;;;;;;;5.15;100.00;99728.25;4968362;28;21007;-75
2022/01/05 10:24:45;;;;;;;8.20;2.03;;;;;;;4.56;100.00;99651.47;4971915;28;20265;-73
2022/01/05 10:27:16;;;;;;;13.47;2.07;;;;;;;4.90;100.00;99738.47;4971316;28;25144;-75
2022/01/05 10:29:54;;;;;;;8.60;2.07;;;;;;;4.65;100.00;99660.94;4976971;28;25092;-75
2022/01/05 10:32:20;;;;;;;13.93;2.40;;;;;;;4.82;100.00;99658.88;4974699;28;25168;-74
2022/01/05 10:35:01;;;;;;;13.40;2.80;;;;;;;5.43;100.00;99744.25;4965225;28;25133;-74
2022/01/05 10:37:26;;;;;;;15.33;2.73;;;;;;;5.36;100.00;99725.59;4958098;28;25126;-75
2022/01/05 10:40:04;;;;;;;14.33;2.50;;;;;;;5.60;100.00;99737.63;4965025;28;25107;-75
2022/01/05 10:42:34;;;;;;;19.00;4.03;;;;;;;5.55;100.00;99721.44;4976883;28;25080;-74
2022/01/05 10:45:02;;;;;;;20.47;3.47;;;;;;;5.76;100.00;99719.75;4970675;28;20472;-76
2022/01/05 10:47:27;;;;;;;28.27;3.60;;;;;;;6.08;100.00;99743.13;4968889;28;25135;-75
2022/01/05 10:49:54;;;;;;;24.13;4.00;;;;;;;6.30;100.00;99766.97;4971848;28;25139;-74
2022/01/05 10:52:33;;;;;;;19.17;2.97;;;;;;;6.38;100.00;99766.81;4974982;28;25059;-75
2022/01/05 10:55:13;;;;;;;11.90;2.90;;;;;;;6.51;100.00;99766.88;4980844;28;20239;-72
2022/01/05 10:57:53;;;;;;;11.80;3.10;;;;;;;6.49;100.00;99762.78;4961374;28;25123;-75
2022/01/05 11:00:55;;;;;;;16.00;3.93;;;;;;;6.74;100.00;99774.56;4978356;28;25205;-75
2022/01/05 11:03:23;;;;;;;15.40;2.97;;;;;;;6.41;100.00;99720.31;4962340;28;25145;-75
2022/01/05 11:06:04;;;;;;;21.53;4.63;;;;;;;6.82;100.00;99778.06;4977105;28;25095;-72
2022/01/05 11:08:31;;;;;;;14.67;2.97;;;;;;;6.25;100.00;99710.81;4979721;28;20452;-74
2022/01/05 11:10:57;;;;;;;22.37;3.90;;;;;;;5.38;100.00;99584.44;4979385;28;25162;-72
2022/01/05 11:13:22;;;;;;;16.70;3.43;;;;;;;6.69;100.00;99798.31;4978664;28;25137;-75
2022/01/05 11:15:56;;;;;;;16.73;3.77;;;;;;;6.67;100.00;99783.56;4975932;28;25057;-74
2022/01/05 11:18:21;;;;;;;14.80;3.30;;;;;;;6.23;100.00;99689.72;4974766;28;20263;-77
2022/01/05 11:20:55;;;;;;;17.17;3.93;;;;;;;6.97;100.00;99808.03;4971410;28;25149;-74
2022/01/05 11:23:23;;;;;;;17.70;4.13;;;;;;;6.97;100.00;99806.22;4974944;28;25062;-75
2022/01/05 11:25:49;;;;;;;20.53;3.97;;;;;;;6.62;100.00;99748.69;4975658;28;25114;-74
2022/01/05 11:28:16;;;;;;;21.83;4.40;;;;;;;6.51;100.00;99712.78;4975824;28;25190;-76
2022/01/05 11:30:43;;;;;;;12.40;3.00;;;;;;;6.45;100.00;99711.75;4972600;28;20479;-74
2022/01/05 11:33:09;;;;;;;25.50;4.90;;;;;;;6.57;100.00;99736.78;4975252;28;25104;-75